sensor_id;sensor_type;location;lat;lon;timestamp;temperature;humidity
66337;SHT30;53139;45.576;5.304;2023-08-12T00:00:23;22.38;67.12
66337;SHT30;53139;45.576;5.304;2023-08-12T00:03:24;22.41;67.21
66337;SHT30;53139;45.576;5.304;2023-08-12T00:06:24;22.44;67.43
66337;SHT30;53139;45.576;5.304;2023-08-12T00:09:24;22.86;65.42
66337;SHT30;53139;45.576;5.304;2023-08-12T00:12:25;22.74;66.40
66337;SHT30;53139;45.576;5.304;2023-08-12T00:15:26;23.11;64.51
66337;SHT30;53139;45.576;5.304;2023-08-12T00:18:26;23.20;64.03
66337;SHT30;53139;45.576;5.304;2023-08-12T00:21:27;22.99;63.69
66337;SHT30;53139;45.576;5.304;2023-08-12T00:24:27;23.38;62.95
66337;SHT30;53139;45.576;5.304;2023-08-12T00:27:27;23.03;63.62
66337;SHT30;53139;45.576;5.304;2023-08-12T00:30:28;22.90;64.42
66337;SHT30;53139;45.576;5.304;2023-08-12T00:33:28;23.22;62.99
66337;SHT30;53139;45.576;5.304;2023-08-12T00:36:29;23.18;63.20
66337;SHT30;53139;45.576;5.304;2023-08-12T00:39:29;23.15;63.16
66337;SHT30;53139;45.576;5.304;2023-08-12T00:42:29;23.17;63.07
66337;SHT30;53139;45.576;5.304;2023-08-12T00:45:30;23.34;62.52
66337;SHT30;53139;45.576;5.304;2023-08-12T00:48:30;23.28;62.78
66337;SHT30;53139;45.576;5.304;2023-08-12T00:51:31;23.35;62.26
66337;SHT30;53139;45.576;5.304;2023-08-12T00:54:31;23.44;61.91
66337;SHT30;53139;45.576;5.304;2023-08-12T00:57:32;23.34;62.11
66337;SHT30;53139;45.576;5.304;2023-08-12T01:00:33;23.20;62.65
66337;SHT30;53139;45.576;5.304;2023-08-12T01:03:34;23.21;62.16
66337;SHT30;53139;45.576;5.304;2023-08-12T01:06:35;23.12;62.23
66337;SHT30;53139;45.576;5.304;2023-08-12T01:09:37;22.97;62.78
66337;SHT30;53139;45.576;5.304;2023-08-12T01:12:42;22.96;62.92
66337;SHT30;53139;45.576;5.304;2023-08-12T01:15:44;22.82;62.98
66337;SHT30;53139;45.576;5.304;2023-08-12T01:18:45;22.89;62.84
66337;SHT30;53139;45.576;5.304;2023-08-12T01:21:47;22.57;63.47
66337;SHT30;53139;45.576;5.304;2023-08-12T01:24:51;22.45;62.77
66337;SHT30;53139;45.576;5.304;2023-08-12T01:27:51;22.34;63.56
66337;SHT30;53139;45.576;5.304;2023-08-12T01:31:20;22.46;63.21
66337;SHT30;53139;45.576;5.304;2023-08-12T01:34:43;22.45;62.43
66337;SHT30;53139;45.576;5.304;2023-08-12T01:37:48;21.96;66.42
66337;SHT30;53139;45.576;5.304;2023-08-12T01:40:50;21.62;68.22
66337;SHT30;53139;45.576;5.304;2023-08-12T01:43:51;21.60;65.18
66337;SHT30;53139;45.576;5.304;2023-08-12T01:46:52;22.63;63.12
66337;SHT30;53139;45.576;5.304;2023-08-12T01:49:52;22.65;63.40
66337;SHT30;53139;45.576;5.304;2023-08-12T01:52:52;23.37;61.41
66337;SHT30;53139;45.576;5.304;2023-08-12T01:55:53;22.80;62.81
66337;SHT30;53139;45.576;5.304;2023-08-12T01:58:53;22.66;62.83
66337;SHT30;53139;45.576;5.304;2023-08-12T02:01:53;22.90;62.57
66337;SHT30;53139;45.576;5.304;2023-08-12T02:04:54;23.10;61.42
66337;SHT30;53139;45.576;5.304;2023-08-12T02:07:54;22.97;61.47
66337;SHT30;53139;45.576;5.304;2023-08-12T02:10:55;22.96;62.02
66337;SHT30;53139;45.576;5.304;2023-08-12T02:13:55;23.39;60.81
66337;SHT30;53139;45.576;5.304;2023-08-12T02:16:55;22.86;62.66
66337;SHT30;53139;45.576;5.304;2023-08-12T02:19:56;22.57;63.00
66337;SHT30;53139;45.576;5.304;2023-08-12T02:22:56;22.51;62.88
66337;SHT30;53139;45.576;5.304;2023-08-12T02:25:56;22.51;62.41
66337;SHT30;53139;45.576;5.304;2023-08-12T02:28:57;22.39;63.82
66337;SHT30;53139;45.576;5.304;2023-08-12T02:31:57;22.07;65.27
66337;SHT30;53139;45.576;5.304;2023-08-12T02:34:57;22.02;65.85
66337;SHT30;53139;45.576;5.304;2023-08-12T02:37:58;21.70;65.60
66337;SHT30;53139;45.576;5.304;2023-08-12T02:40:58;21.56;66.22
66337;SHT30;53139;45.576;5.304;2023-08-12T02:43:59;21.82;66.02
66337;SHT30;53139;45.576;5.304;2023-08-12T02:46:59;22.44;63.40
66337;SHT30;53139;45.576;5.304;2023-08-12T02:49:59;22.83;62.21
66337;SHT30;53139;45.576;5.304;2023-08-12T02:53:00;23.08;61.46
66337;SHT30;53139;45.576;5.304;2023-08-12T02:56:00;22.83;61.62
66337;SHT30;53139;45.576;5.304;2023-08-12T02:59:00;22.93;62.68
66337;SHT30;53139;45.576;5.304;2023-08-12T03:02:01;23.55;60.17
66337;SHT30;53139;45.576;5.304;2023-08-12T03:05:01;23.39;60.62
66337;SHT30;53139;45.576;5.304;2023-08-12T03:08:03;23.27;60.96
66337;SHT30;53139;45.576;5.304;2023-08-12T03:11:04;22.84;62.33
66337;SHT30;53139;45.576;5.304;2023-08-12T03:14:04;22.56;63.03
66337;SHT30;53139;45.576;5.304;2023-08-12T03:17:05;22.57;63.49
66337;SHT30;53139;45.576;5.304;2023-08-12T03:20:06;22.42;63.03
66337;SHT30;53139;45.576;5.304;2023-08-12T03:23:08;22.55;63.63
66337;SHT30;53139;45.576;5.304;2023-08-12T03:26:09;22.56;63.74
66337;SHT30;53139;45.576;5.304;2023-08-12T03:29:09;22.44;64.22
66337;SHT30;53139;45.576;5.304;2023-08-12T03:32:10;22.38;63.94
66337;SHT30;53139;45.576;5.304;2023-08-12T03:35:10;22.37;65.31
66337;SHT30;53139;45.576;5.304;2023-08-12T03:38:10;22.21;64.27
66337;SHT30;53139;45.576;5.304;2023-08-12T03:41:11;22.22;65.25
66337;SHT30;53139;45.576;5.304;2023-08-12T03:44:11;22.18;65.17
66337;SHT30;53139;45.576;5.304;2023-08-12T03:47:12;21.84;64.51
66337;SHT30;53139;45.576;5.304;2023-08-12T03:50:12;21.90;65.37
66337;SHT30;53139;45.576;5.304;2023-08-12T03:53:13;22.12;64.39
66337;SHT30;53139;45.576;5.304;2023-08-12T03:56:13;22.37;63.75
66337;SHT30;53139;45.576;5.304;2023-08-12T03:59:15;22.31;63.64
66337;SHT30;53139;45.576;5.304;2023-08-12T04:02:15;22.39;64.47
66337;SHT30;53139;45.576;5.304;2023-08-12T04:05:16;22.11;64.50
66337;SHT30;53139;45.576;5.304;2023-08-12T04:08:16;22.07;64.52
66337;SHT30;53139;45.576;5.304;2023-08-12T04:11:17;22.79;62.46
66337;SHT30;53139;45.576;5.304;2023-08-12T04:14:17;22.56;63.67
66337;SHT30;53139;45.576;5.304;2023-08-12T04:17:17;22.60;62.22
66337;SHT30;53139;45.576;5.304;2023-08-12T04:20:18;22.48;63.30
66337;SHT30;53139;45.576;5.304;2023-08-12T04:23:18;22.89;61.79
66337;SHT30;53139;45.576;5.304;2023-08-12T04:26:19;22.60;62.83
66337;SHT30;53139;45.576;5.304;2023-08-12T04:29:19;22.59;62.79
66337;SHT30;53139;45.576;5.304;2023-08-12T04:32:20;22.74;62.55
66337;SHT30;53139;45.576;5.304;2023-08-12T04:35:20;22.48;64.04
66337;SHT30;53139;45.576;5.304;2023-08-12T04:38:20;22.66;63.97
66337;SHT30;53139;45.576;5.304;2023-08-12T04:41:21;22.60;63.38
66337;SHT30;53139;45.576;5.304;2023-08-12T04:44:24;22.70;62.99
66337;SHT30;53139;45.576;5.304;2023-08-12T04:47:24;22.96;63.02
66337;SHT30;53139;45.576;5.304;2023-08-12T04:50:25;23.10;61.95
66337;SHT30;53139;45.576;5.304;2023-08-12T04:53:25;22.92;63.38
66337;SHT30;53139;45.576;5.304;2023-08-12T04:56:25;22.89;64.13
66337;SHT30;53139;45.576;5.304;2023-08-12T04:59:29;22.87;65.86
66337;SHT30;53139;45.576;5.304;2023-08-12T05:02:29;23.00;63.09
66337;SHT30;53139;45.576;5.304;2023-08-12T05:05:29;23.00;63.58
66337;SHT30;53139;45.576;5.304;2023-08-12T05:08:30;23.45;60.59
66337;SHT30;53139;45.576;5.304;2023-08-12T05:11:30;23.44;61.46
66337;SHT30;53139;45.576;5.304;2023-08-12T05:14:30;23.49;60.58
66337;SHT30;53139;45.576;5.304;2023-08-12T05:17:31;23.45;60.29
66337;SHT30;53139;45.576;5.304;2023-08-12T05:20:31;23.20;61.93
66337;SHT30;53139;45.576;5.304;2023-08-12T05:23:31;23.20;62.41
66337;SHT30;53139;45.576;5.304;2023-08-12T05:26:33;22.84;63.97
66337;SHT30;53139;45.576;5.304;2023-08-12T05:29:33;22.97;63.05
66337;SHT30;53139;45.576;5.304;2023-08-12T05:32:34;23.00;62.55
66337;SHT30;53139;45.576;5.304;2023-08-12T05:35:35;23.07;62.45
66337;SHT30;53139;45.576;5.304;2023-08-12T05:38:35;22.93;63.77
66337;SHT30;53139;45.576;5.304;2023-08-12T05:41:36;23.24;61.11
66337;SHT30;53139;45.576;5.304;2023-08-12T05:44:36;23.72;60.31
66337;SHT30;53139;45.576;5.304;2023-08-12T05:47:36;23.90;60.07
66337;SHT30;53139;45.576;5.304;2023-08-12T05:50:37;24.35;58.44
66337;SHT30;53139;45.576;5.304;2023-08-12T05:53:37;24.49;58.10
66337;SHT30;53139;45.576;5.304;2023-08-12T05:56:38;24.62;57.91
66337;SHT30;53139;45.576;5.304;2023-08-12T05:59:38;24.69;57.65
66337;SHT30;53139;45.576;5.304;2023-08-12T06:02:38;24.87;57.26
66337;SHT30;53139;45.576;5.304;2023-08-12T06:05:40;25.02;56.75
66337;SHT30;53139;45.576;5.304;2023-08-12T06:08:42;25.42;56.48
66337;SHT30;53139;45.576;5.304;2023-08-12T06:11:43;25.92;55.77
66337;SHT30;53139;45.576;5.304;2023-08-12T06:14:43;26.12;54.46
66337;SHT30;53139;45.576;5.304;2023-08-12T06:17:44;25.99;54.96
66337;SHT30;53139;45.576;5.304;2023-08-12T06:20:44;25.96;56.08
66337;SHT30;53139;45.576;5.304;2023-08-12T06:23:44;25.79;55.22
66337;SHT30;53139;45.576;5.304;2023-08-12T06:26:45;25.75;56.00
66337;SHT30;53139;45.576;5.304;2023-08-12T06:29:45;25.76;55.58
66337;SHT30;53139;45.576;5.304;2023-08-12T06:32:46;25.79;55.25
66337;SHT30;53139;45.576;5.304;2023-08-12T06:35:46;25.92;55.01
66337;SHT30;53139;45.576;5.304;2023-08-12T06:38:46;26.03;54.93
66337;SHT30;53139;45.576;5.304;2023-08-12T06:41:47;26.41;54.96
66337;SHT30;53139;45.576;5.304;2023-08-12T06:44:54;26.65;54.04
66337;SHT30;53139;45.576;5.304;2023-08-12T06:47:55;26.88;54.34
66337;SHT30;53139;45.576;5.304;2023-08-12T06:50:56;26.43;54.58
66337;SHT30;53139;45.576;5.304;2023-08-12T06:53:56;26.26;54.94
66337;SHT30;53139;45.576;5.304;2023-08-12T06:56:56;26.13;54.46
66337;SHT30;53139;45.576;5.304;2023-08-12T06:59:57;25.96;55.31
66337;SHT30;53139;45.576;5.304;2023-08-12T07:02:57;25.78;55.16
66337;SHT30;53139;45.576;5.304;2023-08-12T07:05:58;25.75;55.18
66337;SHT30;53139;45.576;5.304;2023-08-12T07:08:58;25.69;55.19
66337;SHT30;53139;45.576;5.304;2023-08-12T07:11:58;25.75;55.05
66337;SHT30;53139;45.576;5.304;2023-08-12T07:14:59;25.82;55.47
66337;SHT30;53139;45.576;5.304;2023-08-12T07:18:00;25.90;54.62
66337;SHT30;53139;45.576;5.304;2023-08-12T07:21:00;25.99;54.67
66337;SHT30;53139;45.576;5.304;2023-08-12T07:24:00;26.37;53.74
66337;SHT30;53139;45.576;5.304;2023-08-12T07:27:01;26.93;52.91
66337;SHT30;53139;45.576;5.304;2023-08-12T07:30:01;26.91;52.71
66337;SHT30;53139;45.576;5.304;2023-08-12T07:33:02;26.95;53.13
66337;SHT30;53139;45.576;5.304;2023-08-12T07:36:02;26.86;53.12
66337;SHT30;53139;45.576;5.304;2023-08-12T07:39:03;26.85;52.91
66337;SHT30;53139;45.576;5.304;2023-08-12T07:42:03;27.06;52.64
66337;SHT30;53139;45.576;5.304;2023-08-12T07:45:04;27.61;52.16
66337;SHT30;53139;45.576;5.304;2023-08-12T07:48:05;27.58;51.53
66337;SHT30;53139;45.576;5.304;2023-08-12T07:51:05;27.74;51.77
66337;SHT30;53139;45.576;5.304;2023-08-12T07:54:06;27.58;51.72
66337;SHT30;53139;45.576;5.304;2023-08-12T07:57:06;27.65;51.98
66337;SHT30;53139;45.576;5.304;2023-08-12T08:00:07;27.31;52.40
66337;SHT30;53139;45.576;5.304;2023-08-12T08:03:08;27.50;52.05
66337;SHT30;53139;45.576;5.304;2023-08-12T08:06:08;28.03;51.70
66337;SHT30;53139;45.576;5.304;2023-08-12T08:09:09;28.20;50.68
66337;SHT30;53139;45.576;5.304;2023-08-12T08:12:10;28.47;50.58
66337;SHT30;53139;45.576;5.304;2023-08-12T08:15:11;28.47;50.04
66337;SHT30;53139;45.576;5.304;2023-08-12T08:18:11;28.74;49.78
66337;SHT30;53139;45.576;5.304;2023-08-12T08:21:12;29.12;48.54
66337;SHT30;53139;45.576;5.304;2023-08-12T08:24:12;29.57;47.81
66337;SHT30;53139;45.576;5.304;2023-08-12T08:27:12;29.77;48.26
66337;SHT30;53139;45.576;5.304;2023-08-12T08:30:14;29.18;48.43
66337;SHT30;53139;45.576;5.304;2023-08-12T08:33:15;29.42;48.05
66337;SHT30;53139;45.576;5.304;2023-08-12T08:36:15;29.61;48.38
66337;SHT30;53139;45.576;5.304;2023-08-12T08:39:17;29.78;46.87
66337;SHT30;53139;45.576;5.304;2023-08-12T08:42:18;29.81;46.89
66337;SHT30;53139;45.576;5.304;2023-08-12T08:45:21;30.36;46.27
66337;SHT30;53139;45.576;5.304;2023-08-12T08:48:22;30.25;45.99
66337;SHT30;53139;45.576;5.304;2023-08-12T08:51:22;33.77;41.19
66337;SHT30;53139;45.576;5.304;2023-08-12T08:54:23;34.00;39.51
66337;SHT30;53139;45.576;5.304;2023-08-12T08:57:23;29.77;46.54
66337;SHT30;53139;45.576;5.304;2023-08-12T09:00:25;29.46;47.86
66337;SHT30;53139;45.576;5.304;2023-08-12T09:03:27;30.50;45.87
66337;SHT30;53139;45.576;5.304;2023-08-12T09:06:29;32.91;42.47
66337;SHT30;53139;45.576;5.304;2023-08-12T09:09:29;34.82;39.12
66337;SHT30;53139;45.576;5.304;2023-08-12T09:12:30;34.65;40.30
66337;SHT30;53139;45.576;5.304;2023-08-12T09:15:32;35.41;39.65
66337;SHT30;53139;45.576;5.304;2023-08-12T09:18:33;35.37;40.25
66337;SHT30;53139;45.576;5.304;2023-08-12T09:21:34;33.86;40.06
66337;SHT30;53139;45.576;5.304;2023-08-12T09:24:35;36.19;37.89
66337;SHT30;53139;45.576;5.304;2023-08-12T09:27:36;37.16;35.35
66337;SHT30;53139;45.576;5.304;2023-08-12T09:30:38;39.29;33.50
66337;SHT30;53139;45.576;5.304;2023-08-12T09:33:39;36.78;35.20
66337;SHT30;53139;45.576;5.304;2023-08-12T09:36:41;36.87;35.35
66337;SHT30;53139;45.576;5.304;2023-08-12T09:39:41;37.33;34.91
66337;SHT30;53139;45.576;5.304;2023-08-12T09:42:45;39.23;33.77
66337;SHT30;53139;45.576;5.304;2023-08-12T09:45:47;35.75;37.41
66337;SHT30;53139;45.576;5.304;2023-08-12T09:48:49;37.40;35.12
66337;SHT30;53139;45.576;5.304;2023-08-12T09:51:50;35.93;37.43
66337;SHT30;53139;45.576;5.304;2023-08-12T09:54:54;36.39;36.31
66337;SHT30;53139;45.576;5.304;2023-08-12T09:57:57;36.48;37.24
66337;SHT30;53139;45.576;5.304;2023-08-12T10:00:59;37.22;35.16
66337;SHT30;53139;45.576;5.304;2023-08-12T10:04:05;36.58;35.74
66337;SHT30;53139;45.576;5.304;2023-08-12T10:07:10;37.57;35.75
66337;SHT30;53139;45.576;5.304;2023-08-12T10:10:14;37.00;35.51
66337;SHT30;53139;45.576;5.304;2023-08-12T10:13:14;37.39;35.70
66337;SHT30;53139;45.576;5.304;2023-08-12T10:16:16;37.56;35.39
66337;SHT30;53139;45.576;5.304;2023-08-12T10:19:17;38.87;34.04
66337;SHT30;53139;45.576;5.304;2023-08-12T10:22:19;39.39;33.96
66337;SHT30;53139;45.576;5.304;2023-08-12T10:25:20;39.48;33.76
66337;SHT30;53139;45.576;5.304;2023-08-12T10:28:23;38.59;34.12
66337;SHT30;53139;45.576;5.304;2023-08-12T10:31:26;39.65;32.53
66337;SHT30;53139;45.576;5.304;2023-08-12T10:34:28;42.24;30.40
66337;SHT30;53139;45.576;5.304;2023-08-12T10:37:32;41.66;31.20
66337;SHT30;53139;45.576;5.304;2023-08-12T10:40:33;45.28;27.85
66337;SHT30;53139;45.576;5.304;2023-08-12T10:44:09;44.68;28.25
66337;SHT30;53139;45.576;5.304;2023-08-12T10:47:10;44.59;28.47
66337;SHT30;53139;45.576;5.304;2023-08-12T10:50:21;44.54;28.22
66337;SHT30;53139;45.576;5.304;2023-08-12T10:53:32;43.60;28.25
66337;SHT30;53139;45.576;5.304;2023-08-12T11:00:10;41.52;31.48
66337;SHT30;53139;45.576;5.304;2023-08-12T11:03:11;39.98;32.08
66337;SHT30;53139;45.576;5.304;2023-08-12T11:06:12;38.74;33.44
66337;SHT30;53139;45.576;5.304;2023-08-12T11:09:13;40.58;31.41
66337;SHT30;53139;45.576;5.304;2023-08-12T11:12:17;39.50;31.63
66337;SHT30;53139;45.576;5.304;2023-08-12T11:15:41;39.49;31.82
66337;SHT30;53139;45.576;5.304;2023-08-12T11:18:42;37.85;34.08
66337;SHT30;53139;45.576;5.304;2023-08-12T11:21:42;37.95;34.28
66337;SHT30;53139;45.576;5.304;2023-08-12T11:24:43;35.26;37.44
66337;SHT30;53139;45.576;5.304;2023-08-12T11:27:45;36.78;35.52
66337;SHT30;53139;45.576;5.304;2023-08-12T11:30:46;38.01;33.94
66337;SHT30;53139;45.576;5.304;2023-08-12T11:33:46;39.60;32.31
66337;SHT30;53139;45.576;5.304;2023-08-12T11:36:46;38.56;33.42
66337;SHT30;53139;45.576;5.304;2023-08-12T11:39:47;36.64;36.21
66337;SHT30;53139;45.576;5.304;2023-08-12T11:42:49;36.26;36.00
66337;SHT30;53139;45.576;5.304;2023-08-12T11:45:49;36.19;36.76
66337;SHT30;53139;45.576;5.304;2023-08-12T11:48:50;37.74;35.39
66337;SHT30;53139;45.576;5.304;2023-08-12T11:51:50;35.82;36.64
66337;SHT30;53139;45.576;5.304;2023-08-12T11:54:51;36.60;36.02
66337;SHT30;53139;45.576;5.304;2023-08-12T11:57:52;38.06;33.22
66337;SHT30;53139;45.576;5.304;2023-08-12T12:00:52;37.89;34.03
66337;SHT30;53139;45.576;5.304;2023-08-12T12:03:52;36.81;35.22
66337;SHT30;53139;45.576;5.304;2023-08-12T12:06:53;36.24;36.22
66337;SHT30;53139;45.576;5.304;2023-08-12T12:09:54;35.69;37.10
66337;SHT30;53139;45.576;5.304;2023-08-12T12:12:56;35.40;37.87
66337;SHT30;53139;45.576;5.304;2023-08-12T12:15:57;36.00;36.86
66337;SHT30;53139;45.576;5.304;2023-08-12T12:18:58;36.20;36.15
66337;SHT30;53139;45.576;5.304;2023-08-12T12:22:03;37.56;35.36
66337;SHT30;53139;45.576;5.304;2023-08-12T12:25:09;36.94;35.83
66337;SHT30;53139;45.576;5.304;2023-08-12T12:28:09;38.76;33.38
66337;SHT30;53139;45.576;5.304;2023-08-12T12:31:10;42.12;31.19
66337;SHT30;53139;45.576;5.304;2023-08-12T12:34:10;40.08;31.90
66337;SHT30;53139;45.576;5.304;2023-08-12T12:37:10;36.72;36.02
66337;SHT30;53139;45.576;5.304;2023-08-12T12:40:11;36.74;36.44
66337;SHT30;53139;45.576;5.304;2023-08-12T12:43:12;35.27;38.27
66337;SHT30;53139;45.576;5.304;2023-08-12T12:46:12;34.38;39.62
66337;SHT30;53139;45.576;5.304;2023-08-12T12:49:13;34.56;38.86
66337;SHT30;53139;45.576;5.304;2023-08-12T12:52:13;33.99;40.12
66337;SHT30;53139;45.576;5.304;2023-08-12T12:55:14;33.92;40.21
66337;SHT30;53139;45.576;5.304;2023-08-12T12:58:14;33.52;40.79
66337;SHT30;53139;45.576;5.304;2023-08-12T13:01:16;33.45;40.91
66337;SHT30;53139;45.576;5.304;2023-08-12T13:04:16;33.76;41.43
66337;SHT30;53139;45.576;5.304;2023-08-12T13:07:17;34.49;43.11
66337;SHT30;53139;45.576;5.304;2023-08-12T13:10:17;34.51;41.49
66337;SHT30;53139;45.576;5.304;2023-08-12T13:13:17;34.35;40.59
66337;SHT30;53139;45.576;5.304;2023-08-12T13:16:18;33.74;41.44
66337;SHT30;53139;45.576;5.304;2023-08-12T13:19:18;33.61;40.94
66337;SHT30;53139;45.576;5.304;2023-08-12T13:22:19;33.24;41.54
66337;SHT30;53139;45.576;5.304;2023-08-12T13:25:19;33.51;40.81
66337;SHT30;53139;45.576;5.304;2023-08-12T13:28:19;33.86;40.69
66337;SHT30;53139;45.576;5.304;2023-08-12T13:31:20;34.49;40.60
66337;SHT30;53139;45.576;5.304;2023-08-12T13:34:20;34.83;39.34
66337;SHT30;53139;45.576;5.304;2023-08-12T13:37:20;34.56;40.24
66337;SHT30;53139;45.576;5.304;2023-08-12T13:40:21;38.42;36.40
66337;SHT30;53139;45.576;5.304;2023-08-12T13:43:21;40.18;32.33
66337;SHT30;53139;45.576;5.304;2023-08-12T13:46:22;36.07;38.25
66337;SHT30;53139;45.576;5.304;2023-08-12T13:49:22;35.18;38.49
66337;SHT30;53139;45.576;5.304;2023-08-12T13:52:22;34.29;40.33
66337;SHT30;53139;45.576;5.304;2023-08-12T13:55:23;34.47;40.18
66337;SHT30;53139;45.576;5.304;2023-08-12T13:58:23;34.34;40.78
66337;SHT30;53139;45.576;5.304;2023-08-12T14:01:23;34.34;41.99
66337;SHT30;53139;45.576;5.304;2023-08-12T14:04:24;34.48;40.12
66337;SHT30;53139;45.576;5.304;2023-08-12T14:07:24;34.06;41.36
66337;SHT30;53139;45.576;5.304;2023-08-12T14:10:25;34.04;40.89
66337;SHT30;53139;45.576;5.304;2023-08-12T14:13:25;34.73;41.41
66337;SHT30;53139;45.576;5.304;2023-08-12T14:16:25;34.90;39.25
66337;SHT30;53139;45.576;5.304;2023-08-12T14:19:26;36.30;40.13
66337;SHT30;53139;45.576;5.304;2023-08-12T14:22:26;35.69;38.00
66337;SHT30;53139;45.576;5.304;2023-08-12T14:25:26;42.62;30.65
66337;SHT30;53139;45.576;5.304;2023-08-12T14:28:27;43.46;30.89
66337;SHT30;53139;45.576;5.304;2023-08-12T14:31:27;39.32;34.62
66337;SHT30;53139;45.576;5.304;2023-08-12T14:34:27;41.14;33.95
66337;SHT30;53139;45.576;5.304;2023-08-12T14:37:28;39.72;33.34
66337;SHT30;53139;45.576;5.304;2023-08-12T14:40:28;41.02;30.93
66337;SHT30;53139;45.576;5.304;2023-08-12T14:43:29;38.16;35.56
66337;SHT30;53139;45.576;5.304;2023-08-12T14:46:29;41.13;32.73
66337;SHT30;53139;45.576;5.304;2023-08-12T14:49:30;38.57;33.76
66337;SHT30;53139;45.576;5.304;2023-08-12T14:52:30;42.55;29.45
66337;SHT30;53139;45.576;5.304;2023-08-12T14:55:31;41.23;30.82
66337;SHT30;53139;45.576;5.304;2023-08-12T14:58:31;39.74;32.71
66337;SHT30;53139;45.576;5.304;2023-08-12T15:01:31;42.38;30.00
66337;SHT30;53139;45.576;5.304;2023-08-12T15:04:33;46.60;28.16
66337;SHT30;53139;45.576;5.304;2023-08-12T15:07:33;47.15;27.02
66337;SHT30;53139;45.576;5.304;2023-08-12T15:10:34;47.29;28.72
66337;SHT30;53139;45.576;5.304;2023-08-12T15:13:35;48.12;27.04
66337;SHT30;53139;45.576;5.304;2023-08-12T15:16:35;47.85;25.79
66337;SHT30;53139;45.576;5.304;2023-08-12T15:19:36;44.13;27.22
66337;SHT30;53139;45.576;5.304;2023-08-12T15:22:37;45.26;28.04
66337;SHT30;53139;45.576;5.304;2023-08-12T15:25:37;43.51;28.01
66337;SHT30;53139;45.576;5.304;2023-08-12T15:28:38;45.49;28.06
66337;SHT30;53139;45.576;5.304;2023-08-12T15:31:38;47.00;25.59
66337;SHT30;53139;45.576;5.304;2023-08-12T15:34:42;45.96;25.87
66337;SHT30;53139;45.576;5.304;2023-08-12T15:37:43;45.91;25.41
66337;SHT30;53139;45.576;5.304;2023-08-12T15:40:44;47.18;25.13
66337;SHT30;53139;45.576;5.304;2023-08-12T15:43:45;47.09;24.72
66337;SHT30;53139;45.576;5.304;2023-08-12T15:46:45;47.35;26.39
66337;SHT30;53139;45.576;5.304;2023-08-12T15:49:46;45.05;26.03
66337;SHT30;53139;45.576;5.304;2023-08-12T15:52:46;43.29;27.27
66337;SHT30;53139;45.576;5.304;2023-08-12T15:55:47;42.21;27.68
66337;SHT30;53139;45.576;5.304;2023-08-12T15:58:48;45.19;27.08
66337;SHT30;53139;45.576;5.304;2023-08-12T16:01:48;44.27;27.32
66337;SHT30;53139;45.576;5.304;2023-08-12T16:04:49;45.81;26.02
66337;SHT30;53139;45.576;5.304;2023-08-12T16:07:53;45.12;25.92
66337;SHT30;53139;45.576;5.304;2023-08-12T16:10:54;45.14;25.67
66337;SHT30;53139;45.576;5.304;2023-08-12T16:13:54;45.93;24.86
66337;SHT30;53139;45.576;5.304;2023-08-12T16:16:55;45.91;26.39
66337;SHT30;53139;45.576;5.304;2023-08-12T16:19:55;44.41;25.67
66337;SHT30;53139;45.576;5.304;2023-08-12T16:22:56;46.07;24.38
66337;SHT30;53139;45.576;5.304;2023-08-12T16:25:58;43.92;26.85
66337;SHT30;53139;45.576;5.304;2023-08-12T16:28:59;45.09;26.91
66337;SHT30;53139;45.576;5.304;2023-08-12T16:32:08;45.48;26.06
66337;SHT30;53139;45.576;5.304;2023-08-12T16:35:13;45.93;27.31
66337;SHT30;53139;45.576;5.304;2023-08-12T16:38:14;44.25;26.12
66337;SHT30;53139;45.576;5.304;2023-08-12T16:41:14;44.94;26.05
66337;SHT30;53139;45.576;5.304;2023-08-12T16:44:16;44.75;28.38
66337;SHT30;53139;45.576;5.304;2023-08-12T16:47:17;44.59;26.21
66337;SHT30;53139;45.576;5.304;2023-08-12T16:50:17;45.01;27.11
66337;SHT30;53139;45.576;5.304;2023-08-12T16:53:17;43.66;29.44
66337;SHT30;53139;45.576;5.304;2023-08-12T16:56:18;43.68;28.63
66337;SHT30;53139;45.576;5.304;2023-08-12T16:59:18;44.78;25.60
66337;SHT30;53139;45.576;5.304;2023-08-12T17:02:18;42.80;28.74
66337;SHT30;53139;45.576;5.304;2023-08-12T17:05:19;43.17;27.66
66337;SHT30;53139;45.576;5.304;2023-08-12T17:08:19;43.43;27.05
66337;SHT30;53139;45.576;5.304;2023-08-12T17:11:20;42.06;27.95
66337;SHT30;53139;45.576;5.304;2023-08-12T17:14:20;41.04;28.52
66337;SHT30;53139;45.576;5.304;2023-08-12T17:17:21;42.27;29.22
66337;SHT30;53139;45.576;5.304;2023-08-12T17:20:21;39.87;30.36
66337;SHT30;53139;45.576;5.304;2023-08-12T17:23:22;38.78;31.84
66337;SHT30;53139;45.576;5.304;2023-08-12T17:26:22;38.09;32.71
66337;SHT30;53139;45.576;5.304;2023-08-12T17:29:22;37.87;33.25
66337;SHT30;53139;45.576;5.304;2023-08-12T17:32:23;37.43;33.52
66337;SHT30;53139;45.576;5.304;2023-08-12T17:35:24;36.91;34.71
66337;SHT30;53139;45.576;5.304;2023-08-12T17:38:24;36.55;34.33
66337;SHT30;53139;45.576;5.304;2023-08-12T17:41:25;36.64;35.09
66337;SHT30;53139;45.576;5.304;2023-08-12T17:44:25;36.74;34.59
66337;SHT30;53139;45.576;5.304;2023-08-12T17:47:25;35.74;36.95
66337;SHT30;53139;45.576;5.304;2023-08-12T17:50:26;34.88;38.17
66337;SHT30;53139;45.576;5.304;2023-08-12T17:53:27;33.86;40.19
66337;SHT30;53139;45.576;5.304;2023-08-12T17:56:27;32.63;42.96
66337;SHT30;53139;45.576;5.304;2023-08-12T17:59:27;32.25;44.14
66337;SHT30;53139;45.576;5.304;2023-08-12T18:02:28;32.28;44.87
66337;SHT30;53139;45.576;5.304;2023-08-12T18:05:29;31.74;46.18
66337;SHT30;53139;45.576;5.304;2023-08-12T18:08:33;31.90;45.08
66337;SHT30;53139;45.576;5.304;2023-08-12T18:11:33;31.56;45.03
66337;SHT30;53139;45.576;5.304;2023-08-12T18:14:35;31.40;46.25
66337;SHT30;53139;45.576;5.304;2023-08-12T18:17:36;31.22;46.19
66337;SHT30;53139;45.576;5.304;2023-08-12T18:20:36;30.98;46.60
66337;SHT30;53139;45.576;5.304;2023-08-12T18:23:36;30.65;48.25
66337;SHT30;53139;45.576;5.304;2023-08-12T18:26:37;30.40;49.89
66337;SHT30;53139;45.576;5.304;2023-08-12T18:29:37;30.20;49.41
66337;SHT30;53139;45.576;5.304;2023-08-12T18:32:39;29.86;50.49
66337;SHT30;53139;45.576;5.304;2023-08-12T18:35:40;29.97;49.90
66337;SHT30;53139;45.576;5.304;2023-08-12T18:38:40;29.85;50.71
66337;SHT30;53139;45.576;5.304;2023-08-12T18:41:41;29.86;50.67
66337;SHT30;53139;45.576;5.304;2023-08-12T18:44:42;29.77;51.07
66337;SHT30;53139;45.576;5.304;2023-08-12T18:47:42;29.51;50.70
66337;SHT30;53139;45.576;5.304;2023-08-12T18:50:42;29.29;50.89
66337;SHT30;53139;45.576;5.304;2023-08-12T18:53:43;29.10;51.87
66337;SHT30;53139;45.576;5.304;2023-08-12T18:56:43;28.84;53.60
66337;SHT30;53139;45.576;5.304;2023-08-12T18:59:44;29.42;51.31
66337;SHT30;53139;45.576;5.304;2023-08-12T19:02:44;29.10;51.68
66337;SHT30;53139;45.576;5.304;2023-08-12T19:05:45;28.64;53.78